Time;durP1;ratioP1;P1;durP2;ratioP2;P2;SDS_P1;SDS_P2;PMS_P1;PMS_P2;Temp;Humidity;BMP_temperature;BMP_pressure;BME280_temperature;BME280_humidity;BME280_pressure;Samples;Min_cycle;Max_cycle;Signal;HPM_P1;HPM_P2
2023/08/11 00:00:09;;;;;;;18.90;14.27;;;17.50;99.90;;;;;;5136622;27;20591;-80
2023/08/11 00:02:37;;;;;;;16.73;13.38;;;17.40;99.90;;;;;;5122159;27;20209;-81
2023/08/11 00:05:05;;;;;;;16.73;13.87;;;17.40;99.90;;;;;;5152512;27;20225;-81
2023/08/11 00:07:33;;;;;;;20.33;15.50;;;17.30;99.90;;;;;;5135254;27;20208;-81
2023/08/11 00:09:59;;;;;;;17.80;14.55;;;17.30;99.90;;;;;;5142043;27;20197;-81
2023/08/11 00:12:26;;;;;;;16.77;13.80;;;17.20;99.90;;;;;;5154620;27;20568;-80
2023/08/11 00:14:54;;;;;;;19.25;15.15;;;17.20;99.90;;;;;;5154619;27;20194;-80
2023/08/11 00:17:21;;;;;;;21.00;14.67;;;17.20;99.90;;;;;;5153725;27;20204;-80
2023/08/11 00:19:48;;;;;;;17.67;12.90;;;17.20;99.90;;;;;;5154231;27;20190;-81
2023/08/11 00:22:15;;;;;;;18.80;14.50;;;17.10;99.90;;;;;;5147484;27;20212;-80
2023/08/11 00:24:42;;;;;;;19.25;14.73;;;17.10;99.90;;;;;;5142899;27;20191;-81
2023/08/11 00:27:08;;;;;;;18.80;14.40;;;17.10;99.90;;;;;;5154871;27;20217;-81
2023/08/11 00:29:36;;;;;;;26.20;18.47;;;17.00;99.90;;;;;;5154351;27;20213;-82
2023/08/11 00:32:03;;;;;;;24.57;17.33;;;17.10;99.90;;;;;;5153371;27;20201;-82
2023/08/11 00:34:31;;;;;;;21.37;16.57;;;17.00;99.90;;;;;;5111312;27;20213;-81
2023/08/11 00:36:57;;;;;;;24.27;17.33;;;17.00;99.90;;;;;;5126239;27;20203;-82
2023/08/11 00:39:24;;;;;;;23.20;18.67;;;17.00;99.90;;;;;;5153562;27;20217;-80
2023/08/11 00:41:51;;;;;;;22.50;17.63;;;17.00;99.90;;;;;;5152076;27;20257;-80
2023/08/11 00:44:18;;;;;;;24.87;19.20;;;16.90;99.90;;;;;;5130731;27;20203;-80
2023/08/11 00:46:45;;;;;;;23.43;18.00;;;16.90;99.90;;;;;;5152805;27;20197;-81
2023/08/11 00:49:14;;;;;;;23.60;18.10;;;16.90;99.90;;;;;;5134295;27;20250;-81
2023/08/11 00:51:41;;;;;;;23.90;18.43;;;16.80;99.90;;;;;;5140095;27;20288;-82
2023/08/11 00:54:10;;;;;;;23.83;19.10;;;16.80;99.90;;;;;;5132246;27;20269;-81
2023/08/11 00:56:43;;;;;;;23.83;18.80;;;16.70;99.90;;;;;;5151085;27;20206;-79
2023/08/11 00:59:20;;;;;;;27.87;20.03;;;16.70;99.90;;;;;;5152344;27;20277;-81
2023/08/11 01:01:47;;;;;;;24.37;19.40;;;16.70;99.90;;;;;;5146580;27;20195;-81
2023/08/11 01:04:14;;;;;;;24.03;17.47;;;16.60;99.90;;;;;;5144069;27;20274;-82
2023/08/11 01:06:47;;;;;;;25.87;19.17;;;16.60;99.90;;;;;;5151358;27;20229;-81
2023/08/11 01:09:29;;;;;;;27.10;19.97;;;16.60;99.90;;;;;;5133585;27;20198;-81
2023/08/11 01:12:20;;;;;;;25.23;19.17;;;16.60;99.90;;;;;;5138582;27;20210;-80
2023/08/11 01:15:16;;;;;;;22.90;17.80;;;16.60;99.90;;;;;;5133461;27;20264;-80
2023/08/11 01:17:47;;;;;;;26.43;19.40;;;16.60;99.90;;;;;;5151809;27;20197;-80
2023/08/11 01:20:16;;;;;;;23.17;18.23;;;16.70;99.90;;;;;;5133317;27;20293;-81
2023/08/11 01:22:54;;;;;;;23.43;18.20;;;16.50;99.90;;;;;;5144070;27;20195;-82
2023/08/11 01:25:22;;;;;;;24.07;18.13;;;16.50;99.90;;;;;;5152034;27;20645;-81
2023/08/11 01:27:59;;;;;;;24.20;17.60;;;16.60;99.90;;;;;;5151277;27;20669;-81
2023/08/11 01:30:28;;;;;;;22.23;17.13;;;16.50;99.90;;;;;;5151966;27;20232;-81
2023/08/11 01:32:55;;;;;;;25.73;18.47;;;16.50;99.90;;;;;;5150774;27;20206;-80
2023/08/11 01:35:23;;;;;;;22.00;17.10;;;16.50;99.90;;;;;;5140720;27;20213;-81
2023/08/11 01:38:06;;;;;;;22.50;18.43;;;16.50;99.90;;;;;;5150899;27;20202;-82
2023/08/11 01:40:33;;;;;;;24.30;18.83;;;16.50;99.90;;;;;;5148229;27;20194;-79
2023/08/11 01:43:02;;;;;;;23.97;18.23;;;16.50;99.90;;;;;;5150605;27;20227;-82
2023/08/11 01:45:29;;;;;;;23.27;18.47;;;16.50;99.90;;;;;;5132737;27;20198;-81
2023/08/11 01:47:59;;;;;;;24.70;19.00;;;16.40;99.90;;;;;;5120443;27;20567;-81
2023/08/11 01:50:27;;;;;;;24.03;18.33;;;16.40;99.90;;;;;;5151857;27;20225;-82
2023/08/11 01:52:55;;;;;;;26.27;18.77;;;16.40;99.90;;;;;;5143019;27;20289;-81
2023/08/11 01:55:24;;;;;;;25.73;18.70;;;16.40;99.90;;;;;;5146955;27;20194;-81
2023/08/11 01:57:52;;;;;;;22.07;17.77;;;16.40;99.90;;;;;;5134236;27;20208;-80
2023/08/11 02:00:26;;;;;;;25.87;18.00;;;16.20;99.90;;;;;;5149825;27;20472;-83
2023/08/11 02:02:53;;;;;;;23.87;18.80;;;16.30;99.90;;;;;;5169512;27;20206;-81
2023/08/11 02:05:24;;;;;;;23.43;18.00;;;16.30;99.90;;;;;;5151549;27;20288;-81
2023/08/11 02:07:51;;;;;;;25.37;17.63;;;16.20;99.90;;;;;;5152529;27;20209;-81
2023/08/11 02:10:18;;;;;;;21.87;18.43;;;16.20;99.90;;;;;;5137501;27;20202;-81
2023/08/11 02:12:45;;;;;;;23.27;18.30;;;16.20;99.90;;;;;;5136255;27;20340;-83
2023/08/11 02:15:12;;;;;;;23.50;18.63;;;16.20;99.90;;;;;;5151613;27;20228;-81
2023/08/11 02:17:39;;;;;;;23.53;18.30;;;16.20;99.90;;;;;;5133499;27;20202;-81
2023/08/11 02:20:22;;;;;;;24.13;19.03;;;16.20;99.90;;;;;;5139911;27;20254;-81
2023/08/11 02:22:52;;;;;;;25.20;18.30;;;16.20;99.90;;;;;;5150801;27;20282;-80
2023/08/11 02:25:21;;;;;;;21.03;17.50;;;16.20;99.90;;;;;;5129741;27;20196;-82
2023/08/11 02:27:49;;;;;;;20.83;17.27;;;16.10;99.90;;;;;;5150830;27;20232;-81
2023/08/11 02:30:17;;;;;;;20.97;16.47;;;16.20;99.90;;;;;;5150811;27;20239;-80
2023/08/11 02:32:47;;;;;;;20.87;17.07;;;16.10;99.90;;;;;;5141625;27;20259;-81
2023/08/11 02:35:14;;;;;;;22.63;17.40;;;16.10;99.90;;;;;;5148328;27;20244;-81
2023/08/11 02:37:41;;;;;;;20.90;16.50;;;16.10;99.90;;;;;;5139913;27;20638;-80
2023/08/11 02:40:09;;;;;;;22.93;17.63;;;16.10;99.90;;;;;;5129722;27;20219;-82
2023/08/11 02:42:52;;;;;;;24.50;17.43;;;16.00;99.90;;;;;;5135817;27;20230;-80
2023/08/11 02:45:20;;;;;;;23.60;16.77;;;16.00;99.90;;;;;;5137808;27;20215;-82
2023/08/11 02:47:48;;;;;;;22.40;18.43;;;16.00;99.90;;;;;;5134923;27;20198;-80
2023/08/11 02:50:15;;;;;;;23.60;18.10;;;16.00;99.90;;;;;;5132754;27;20266;-82
2023/08/11 02:52:43;;;;;;;23.17;16.63;;;16.00;99.90;;;;;;5143270;27;20206;-80
2023/08/11 02:55:16;;;;;;;18.40;15.70;;;16.00;99.90;;;;;;5150823;27;20274;-82
2023/08/11 02:57:42;;;;;;;18.43;15.57;;;15.90;99.90;;;;;;5108720;27;20258;-80
2023/08/11 03:00:13;;;;;;;20.87;16.13;;;16.00;99.90;;;;;;5151166;27;20213;-81
2023/08/11 03:02:41;;;;;;;19.07;16.00;;;15.90;99.90;;;;;;5141206;27;20240;-81
2023/08/11 03:05:09;;;;;;;18.60;15.20;;;16.00;99.90;;;;;;5136122;27;20598;-81
2023/08/11 03:07:38;;;;;;;17.33;14.20;;;15.90;99.90;;;;;;5141073;27;20254;-81
2023/08/11 03:10:06;;;;;;;22.10;16.50;;;15.90;99.90;;;;;;5151053;27;20327;-81
2023/08/11 03:12:33;;;;;;;21.10;16.40;;;15.90;99.90;;;;;;5149659;27;20526;-80
2023/08/11 03:15:00;;;;;;;19.27;14.83;;;15.90;99.90;;;;;;5146788;27;20218;-80
2023/08/11 03:17:27;;;;;;;19.73;15.13;;;15.90;99.90;;;;;;5154988;27;20258;-81
2023/08/11 03:19:53;;;;;;;20.77;14.70;;;15.90;99.90;;;;;;5147797;27;20202;-81
2023/08/11 03:22:20;;;;;;;18.67;14.23;;;15.90;99.90;;;;;;5149385;27;20754;-82
2023/08/11 03:24:47;;;;;;;18.70;14.80;;;15.90;99.90;;;;;;5154758;27;20194;-81
2023/08/11 03:27:18;;;;;;;18.50;13.93;;;15.90;99.90;;;;;;5154528;27;20270;-78
2023/08/11 03:29:45;;;;;;;21.63;14.30;;;15.90;99.90;;;;;;5132129;27;20230;-81
2023/08/11 03:32:12;;;;;;;17.27;13.93;;;15.90;99.90;;;;;;5148670;27;20728;-81
2023/08/11 03:34:39;;;;;;;19.33;14.67;;;15.90;99.90;;;;;;5136450;27;20230;-81
2023/08/11 03:37:06;;;;;;;16.77;13.27;;;15.90;99.90;;;;;;5125498;27;20220;-83
2023/08/11 03:39:33;;;;;;;14.77;11.90;;;15.80;99.90;;;;;;5135242;27;20202;-80
2023/08/11 03:42:00;;;;;;;18.10;13.17;;;15.80;99.90;;;;;;5153737;27;20225;-82
2023/08/11 03:44:27;;;;;;;17.63;13.63;;;15.80;99.90;;;;;;5154340;27;20281;-81
2023/08/11 03:46:53;;;;;;;15.57;12.87;;;15.80;99.90;;;;;;5153406;27;20623;-80
2023/08/11 03:49:20;;;;;;;15.57;13.00;;;15.80;99.90;;;;;;5152304;27;20746;-81
2023/08/11 03:51:47;;;;;;;15.37;12.20;;;15.80;99.90;;;;;;5152083;27;20220;-81
2023/08/11 03:54:14;;;;;;;19.40;14.37;;;15.80;99.90;;;;;;5153220;27;20243;-81
2023/08/11 03:56:41;;;;;;;17.07;12.57;;;15.70;99.90;;;;;;5153123;27;20587;-81
2023/08/11 03:59:08;;;;;;;17.30;12.23;;;15.70;99.90;;;;;;5134723;27;20193;-80
2023/08/11 04:01:34;;;;;;;17.83;13.10;;;15.80;99.90;;;;;;5125761;27;20203;-81
2023/08/11 04:04:01;;;;;;;15.93;13.10;;;15.70;99.90;;;;;;5132317;27;20197;-80
2023/08/11 04:06:32;;;;;;;18.53;13.20;;;15.70;99.90;;;;;;5153581;27;20266;-79
2023/08/11 04:09:00;;;;;;;16.83;13.20;;;15.70;99.90;;;;;;5153436;27;20711;-80
2023/08/11 04:11:29;;;;;;;15.83;13.00;;;15.70;99.90;;;;;;5125231;27;20218;-81
2023/08/11 04:13:56;;;;;;;15.77;13.03;;;15.70;99.90;;;;;;5151406;27;20275;-81
2023/08/11 04:16:23;;;;;;;17.27;13.13;;;15.70;99.90;;;;;;5153019;27;20194;-80
2023/08/11 04:18:50;;;;;;;18.43;13.47;;;15.70;99.90;;;;;;5152830;27;20247;-80
2023/08/11 04:21:17;;;;;;;16.90;13.47;;;15.70;99.90;;;;;;5149701;27;20247;-81
2023/08/11 04:23:43;;;;;;;17.53;13.70;;;15.80;99.90;;;;;;5153032;27;20220;-81
2023/08/11 04:26:10;;;;;;;16.40;13.73;;;15.70;99.90;;;;;;5153009;27;20216;-81
2023/08/11 04:28:38;;;;;;;17.50;14.43;;;15.80;99.90;;;;;;5152452;27;20206;-81
2023/08/11 04:31:09;;;;;;;17.73;14.43;;;15.80;99.90;;;;;;5146059;27;20228;-80
2023/08/11 04:33:36;;;;;;;16.27;13.53;;;15.80;99.90;;;;;;5134210;27;20210;-80
2023/08/11 04:36:03;;;;;;;18.50;13.73;;;15.80;99.90;;;;;;5155408;27;20571;-82
2023/08/11 04:38:30;;;;;;;16.90;12.90;;;15.70;99.90;;;;;;5133563;27;20201;-80
2023/08/11 04:40:58;;;;;;;14.87;12.00;;;15.80;99.90;;;;;;5141340;27;20189;-81
2023/08/11 04:43:25;;;;;;;16.47;12.60;;;15.80;99.90;;;;;;5152782;27;20217;-81
2023/08/11 04:45:51;;;;;;;14.70;12.30;;;15.70;99.90;;;;;;5151349;27;20209;-80
2023/08/11 04:48:18;;;;;;;14.57;11.97;;;15.80;99.90;;;;;;5153120;27;20257;-81
2023/08/11 04:50:52;;;;;;;14.80;13.17;;;15.80;99.90;;;;;;5152480;27;20559;-82
2023/08/11 04:53:20;;;;;;;15.30;12.23;;;15.80;99.90;;;;;;5145088;27;20287;-82
2023/08/11 04:55:48;;;;;;;14.67;12.37;;;15.80;99.90;;;;;;5140850;27;20297;-81
2023/08/11 04:58:14;;;;;;;16.87;12.37;;;15.90;99.90;;;;;;5152636;27;20210;-82
2023/08/11 05:00:43;;;;;;;13.17;11.53;;;15.90;99.90;;;;;;5132868;27;20205;-80
2023/08/11 05:03:10;;;;;;;17.10;12.97;;;15.90;99.90;;;;;;5151643;27;20285;-82
2023/08/11 05:05:37;;;;;;;17.73;13.03;;;16.00;99.90;;;;;;5139937;27;20738;-81
2023/08/11 05:08:05;;;;;;;17.03;13.43;;;16.00;99.90;;;;;;5152338;27;20209;-81
2023/08/11 05:10:33;;;;;;;15.63;12.37;;;16.20;99.90;;;;;;5152076;27;20190;-84
2023/08/11 05:12:59;;;;;;;17.57;12.23;;;16.10;99.90;;;;;;5131842;27;20222;-82
2023/08/11 05:15:26;;;;;;;15.30;12.30;;;16.10;99.90;;;;;;5152049;27;20266;-81
2023/08/11 05:17:53;;;;;;;16.97;12.47;;;16.10;99.90;;;;;;5141513;27;20198;-82
2023/08/11 05:20:21;;;;;;;17.80;13.63;;;16.20;99.90;;;;;;5151260;27;20900;-80
2023/08/11 05:22:48;;;;;;;13.80;12.03;;;16.30;99.90;;;;;;5154232;27;20201;-80
2023/08/11 05:25:16;;;;;;;15.70;12.33;;;16.30;99.90;;;;;;5137593;27;20217;-80
2023/08/11 05:27:43;;;;;;;16.43;11.77;;;16.40;99.90;;;;;;5135852;27;20206;-80
2023/08/11 05:30:10;;;;;;;18.27;12.27;;;16.40;99.90;;;;;;5154837;27;20198;-83
2023/08/11 05:32:37;;;;;;;15.93;12.33;;;16.50;99.90;;;;;;5120441;27;20725;-81
2023/08/11 05:35:04;;;;;;;15.57;12.07;;;16.50;99.90;;;;;;5135489;27;20276;-80
2023/08/11 05:37:32;;;;;;;17.90;12.60;;;16.50;99.90;;;;;;5150562;27;20206;-82
2023/08/11 05:39:59;;;;;;;14.30;11.73;;;16.60;99.90;;;;;;5149820;27;20197;-81
2023/08/11 05:42:27;;;;;;;15.52;11.32;;;16.70;99.90;;;;;;5139316;27;20210;-80
2023/08/11 05:44:54;;;;;;;16.53;11.77;;;16.70;99.90;;;;;;5149141;27;20205;-80
2023/08/11 05:47:21;;;;;;;18.50;13.30;;;16.80;99.90;;;;;;5143671;27;20190;-81
2023/08/11 05:49:47;;;;;;;15.20;10.98;;;16.90;99.90;;;;;;5141876;27;20206;-81
2023/08/11 05:52:14;;;;;;;15.57;11.82;;;16.90;99.90;;;;;;5146761;27;20661;-80
2023/08/11 05:54:41;;;;;;;14.90;11.68;;;17.00;99.90;;;;;;5121232;27;20217;-80
2023/08/11 05:57:08;;;;;;;14.70;11.30;;;17.10;99.90;;;;;;5142842;27;20221;-83
2023/08/11 05:59:35;;;;;;;16.08;11.55;;;17.10;99.90;;;;;;5147650;27;20193;-82
2023/08/11 06:02:02;;;;;;;14.95;10.50;;;17.30;99.90;;;;;;5151294;27;20650;-80
2023/08/11 06:04:29;;;;;;;15.05;11.60;;;17.30;99.90;;;;;;5152179;27;20198;-81
2023/08/11 06:06:56;;;;;;;16.52;10.00;;;17.60;99.90;;;;;;5152971;27;20643;-82
2023/08/11 06:09:24;;;;;;;11.00;8.30;;;18.20;99.90;;;;;;5135475;27;20189;-83
2023/08/11 06:11:50;;;;;;;10.20;7.15;;;19.20;99.90;;;;;;5130259;27;20213;-81
2023/08/11 06:14:17;;;;;;;10.10;7.18;;;20.20;99.90;;;;;;5151984;27;20201;-80
2023/08/11 06:16:44;;;;;;;10.38;7.25;;;21.20;99.90;;;;;;5150971;27;20200;-81
2023/08/11 06:19:11;;;;;;;8.70;7.13;;;22.10;99.90;;;;;;5136050;27;20197;-80
2023/08/11 06:21:38;;;;;;;7.43;6.40;;;23.10;99.90;;;;;;5150746;27;20269;-81
2023/08/11 06:24:05;;;;;;;10.38;6.50;;;23.80;99.90;;;;;;5123306;27;20678;-81
2023/08/11 06:26:32;;;;;;;7.68;5.70;;;24.60;99.90;;;;;;5130960;27;20541;-82
2023/08/11 06:28:58;;;;;;;7.30;5.97;;;25.20;99.90;;;;;;5129733;27;20250;-81
2023/08/11 06:31:25;;;;;;;10.00;5.57;;;25.80;99.90;;;;;;5148860;27;20599;-81
2023/08/11 06:33:53;;;;;;;6.50;5.60;;;;;;;;;;5122202;27;20256;-81
2023/08/11 06:36:20;;;;;;;7.85;5.65;;;26.60;99.90;;;;;;5135627;27;20226;-80
2023/08/11 06:38:49;;;;;;;7.28;5.35;;;27.00;99.90;;;;;;5148110;27;20212;-79
2023/08/11 06:41:16;;;;;;;7.40;5.57;;;27.50;99.90;;;;;;5150280;27;20194;-79
2023/08/11 06:43:43;;;;;;;8.27;5.60;;;27.70;99.90;;;;;;5145853;27;20558;-82
2023/08/11 06:46:10;;;;;;;6.43;5.30;;;28.10;99.90;;;;;;5125381;27;20209;-81
2023/08/11 06:48:39;;;;;;;7.43;5.50;;;28.30;99.90;;;;;;5144763;27;20627;-85
2023/08/11 06:51:07;;;;;;;6.90;5.07;;;28.70;99.90;;;;;;5148455;27;20198;-82
2023/08/11 06:53:34;;;;;;;7.85;5.28;;;29.00;99.90;;;;;;5136458;27;20200;-84
2023/08/11 06:56:01;;;;;;;6.07;5.25;;;29.20;99.90;;;;;;5157364;27;20233;-83
2023/08/11 06:58:28;;;;;;;7.30;5.20;;;29.50;99.90;;;;;;5145514;27;20218;-84
2023/08/11 07:00:54;;;;;;;7.60;5.57;;;29.70;99.90;;;;;;5154182;27;20194;-83
2023/08/11 07:03:21;;;;;;;5.20;4.53;;;29.90;99.90;;;;;;5153071;27;20724;-82
2023/08/11 07:05:51;;;;;;;8.82;5.82;;;30.10;99.90;;;;;;5153635;27;20707;-82
2023/08/11 07:08:19;;;;;;;7.80;6.05;;;30.40;99.90;;;;;;5150500;27;20290;-83
2023/08/11 07:10:46;;;;;;;7.28;5.22;;;30.40;99.90;;;;;;5128070;27;20190;-83
2023/08/11 07:13:12;;;;;;;6.47;5.00;;;30.50;99.90;;;;;;5153441;27;20539;-82
2023/08/11 07:15:42;;;;;;;9.35;5.68;;;30.40;99.90;;;;;;5148766;27;20583;-81
2023/08/11 07:18:10;;;;;;;8.00;5.45;;;30.60;99.90;;;;;;5152303;27;20658;-83
2023/08/11 07:20:44;;;;;;;6.50;5.55;;;30.60;99.90;;;;;;5151130;27;20193;-83
2023/08/11 07:23:11;;;;;;;7.57;5.70;;;30.80;99.90;;;;;;5150970;27;20244;-83
2023/08/11 07:25:40;;;;;;;6.72;5.30;;;30.70;99.90;;;;;;5153047;27;20245;-82
2023/08/11 07:28:07;;;;;;;8.43;5.63;;;30.70;99.90;;;;;;5134380;27;20241;-85
2023/08/11 07:30:38;;;;;;;7.38;5.38;;;30.80;99.90;;;;;;5151832;27;20200;-82
2023/08/11 07:33:05;;;;;;;6.72;5.03;;;30.90;99.90;;;;;;5153585;27;20205;-82
2023/08/11 07:35:32;;;;;;;6.55;5.40;;;30.90;99.90;;;;;;5145154;27;20222;-86
2023/08/11 07:37:59;;;;;;;7.75;5.30;;;31.10;99.90;;;;;;5130715;27;20205;-85
2023/08/11 07:40:26;;;;;;;6.28;5.25;;;31.20;99.90;;;;;;5144253;27;20198;-85
2023/08/11 07:42:53;;;;;;;6.80;4.85;;;31.30;99.90;;;;;;5152900;27;20300;-83
2023/08/11 07:45:20;;;;;;;7.03;5.35;;;31.40;99.90;;;;;;5147047;27;20663;-85
2023/08/11 07:47:46;;;;;;;6.35;4.35;;;31.50;99.90;;;;;;5151659;27;20205;-85
2023/08/11 07:50:14;;;;;;;7.57;5.25;;;31.60;99.90;;;;;;5134576;27;20286;-87
2023/08/11 07:52:41;;;;;;;7.72;5.22;;;31.80;99.90;;;;;;5130629;27;20200;-84
2023/08/11 07:55:08;;;;;;;6.07;5.13;;;31.90;99.90;;;;;;5151899;27;20700;-85
2023/08/11 07:57:35;;;;;;;7.25;4.93;;;31.90;99.90;;;;;;5146990;27;20213;-84
2023/08/11 08:00:04;;;;;;;6.55;4.88;;;31.90;99.90;;;;;;5149525;27;20201;-84
2023/08/11 08:02:31;;;;;;;5.97;4.82;;;31.80;99.90;;;;;;5130308;27;20186;-84
2023/08/11 08:04:58;;;;;;;8.38;5.55;;;31.80;99.90;;;;;;5138896;27;20193;-85
2023/08/11 08:07:38;;;;;;;6.63;5.38;;;31.90;99.90;;;;;;5162421;27;20264;-84
2023/08/11 08:10:08;;;;;;;6.57;5.50;;;31.80;99.90;;;;;;5154422;27;20422;-84
2023/08/11 08:12:36;;;;;;;6.40;4.78;;;31.80;99.90;;;;;;5156504;27;20217;-82
2023/08/11 08:15:05;;;;;;;5.82;4.55;;;31.80;99.90;;;;;;5163541;27;20222;-84
2023/08/11 08:17:32;;;;;;;7.13;5.25;;;31.80;99.90;;;;;;5166784;27;20182;-84
2023/08/11 08:20:00;;;;;;;9.35;4.78;;;32.00;99.90;;;;;;5164253;27;20197;-84
2023/08/11 08:22:26;;;;;;;7.68;5.00;;;32.10;99.90;;;;;;5168320;27;20208;-83
2023/08/11 08:24:53;;;;;;;7.03;5.10;;;32.10;99.90;;;;;;5165464;27;20193;-81
2023/08/11 08:27:26;;;;;;;9.10;5.03;;;32.30;99.90;;;;;;5163401;27;20243;-83
2023/08/11 08:29:54;;;;;;;9.05;4.70;;;32.20;99.90;;;;;;5154115;27;20198;-83
2023/08/11 08:32:21;;;;;;;6.88;4.70;;;32.00;99.90;;;;;;5151807;27;20546;-84
2023/08/11 08:34:48;;;;;;;5.82;3.90;;;32.10;99.90;;;;;;5139544;27;20557;-82
2023/08/11 08:37:19;;;;;;;6.50;5.15;;;32.20;99.90;;;;;;5141247;27;20198;-84
2023/08/11 08:39:47;;;;;;;5.90;4.55;;;32.40;99.90;;;;;;5151259;27;20270;-84
2023/08/11 08:42:19;;;;;;;6.55;4.57;;;32.40;99.90;;;;;;5133970;27;20213;-83
2023/08/11 08:44:49;;;;;;;5.80;3.83;;;32.50;99.90;;;;;;5134364;27;20228;-84
2023/08/11 08:47:18;;;;;;;7.53;4.72;;;32.40;99.90;;;;;;5128397;27;20283;-83
2023/08/11 08:49:48;;;;;;;6.93;5.00;;;32.40;99.90;;;;;;5132012;27;20823;-83
2023/08/11 08:52:16;;;;;;;6.53;4.72;;;32.50;99.90;;;;;;5132725;27;20228;-81
2023/08/11 08:54:44;;;;;;;6.90;4.47;;;32.50;99.90;;;;;;5123874;27;20659;-83
2023/08/11 08:57:11;;;;;;;8.52;4.35;;;32.50;99.90;;;;;;5145680;27;20255;-84
2023/08/11 08:59:43;;;;;;;5.35;4.32;;;32.50;99.90;;;;;;5146833;27;20196;-84
2023/08/11 09:02:11;;;;;;;5.25;3.95;;;32.50;99.90;;;;;;5151433;27;20877;-84
2023/08/11 09:04:40;;;;;;;6.00;4.53;;;32.70;99.90;;;;;;5130612;27;20661;-83
2023/08/11 09:07:07;;;;;;;5.85;4.05;;;32.70;99.90;;;;;;5147363;27;20244;-84
2023/08/11 09:09:35;;;;;;;5.28;4.55;;;32.60;99.90;;;;;;5143233;27;20198;-85
2023/08/11 09:12:02;;;;;;;6.75;4.32;;;32.50;99.90;;;;;;5129401;27;20295;-83
2023/08/11 09:14:29;;;;;;;8.75;4.20;;;32.30;99.90;;;;;;5140022;27;20206;-84
2023/08/11 09:17:02;;;;;;;6.00;4.03;;;32.10;99.90;;;;;;5130190;27;20214;-86
2023/08/11 09:19:29;;;;;;;8.57;3.80;;;31.90;99.90;;;;;;5151749;27;20403;-85
2023/08/11 09:22:10;;;;;;;6.20;3.42;;;31.80;99.90;;;;;;5149433;27;20241;-85
2023/08/11 09:24:48;;;;;;;4.40;3.63;;;31.70;99.90;;;;;;5131754;27;20263;-84
2023/08/11 09:27:17;;;;;;;5.78;3.67;;;31.60;99.90;;;;;;5131920;27;20740;-84
2023/08/11 09:29:45;;;;;;;5.15;3.55;;;31.60;99.90;;;;;;5131625;27;20263;-83
2023/08/11 09:32:14;;;;;;;5.97;3.63;;;31.50;99.90;;;;;;5128092;27;20317;-84
2023/08/11 09:34:43;;;;;;;4.10;3.28;;;31.40;99.90;;;;;;5122756;27;20206;-84
2023/08/11 09:37:10;;;;;;;5.75;3.33;;;31.50;99.90;;;;;;5131008;27;20317;-87
2023/08/11 09:39:37;;;;;;;4.82;3.30;;;31.50;99.90;;;;;;5125541;27;20607;-87
2023/08/11 09:42:06;;;;;;;5.20;3.50;;;31.60;99.90;;;;;;5131066;27;20275;-85
2023/08/11 09:44:33;;;;;;;3.80;3.13;;;31.60;99.90;;;;;;5132093;27;20195;-85
2023/08/11 09:47:02;;;;;;;4.43;3.40;;;31.60;99.90;;;;;;5128200;27;20228;-84
2023/08/11 09:49:41;;;;;;;3.90;3.00;;;31.60;99.90;;;;;;5126481;27;20565;-85
2023/08/11 09:52:10;;;;;;;4.90;3.05;;;31.50;99.90;;;;;;5139888;27;20224;-83
2023/08/11 09:54:38;;;;;;;4.40;2.85;;;31.60;99.90;;;;;;5141995;27;20206;-85
2023/08/11 09:57:06;;;;;;;4.68;3.30;;;31.70;99.90;;;;;;5139510;27;20597;-85
2023/08/11 09:59:34;;;;;;;4.82;2.85;;;31.80;99.90;;;;;;5130968;27;20201;-85
2023/08/11 10:02:02;;;;;;;4.28;2.53;;;31.90;99.90;;;;;;5121835;27;20206;-83
2023/08/11 10:04:41;;;;;;;2.92;2.63;;;31.90;99.90;;;;;;5129799;27;20202;-83
2023/08/11 10:07:12;;;;;;;6.13;3.20;;;32.00;99.90;;;;;;5130541;27;20205;-83
2023/08/11 10:09:41;;;;;;;3.67;2.65;;;31.90;99.90;;;;;;5125317;27;20207;-82
2023/08/11 10:12:09;;;;;;;5.30;2.90;;;31.70;99.90;;;;;;5126319;27;20214;-85
2023/08/11 10:14:39;;;;;;;4.60;3.08;;;31.50;99.90;;;;;;5130919;27;20259;-84
2023/08/11 10:17:07;;;;;;;2.85;2.33;;;31.50;99.90;;;;;;5130895;27;20222;-83
2023/08/11 10:19:35;;;;;;;4.75;3.47;;;31.60;99.90;;;;;;5138100;27;20224;-83
2023/08/11 10:22:02;;;;;;;4.22;3.08;;;31.50;99.90;;;;;;5132720;27;20198;-84
2023/08/11 10:24:30;;;;;;;4.03;2.70;;;31.50;99.90;;;;;;5129589;27;20575;-84
2023/08/11 10:26:58;;;;;;;4.55;3.25;;;31.50;99.90;;;;;;5125981;27;20214;-84
2023/08/11 10:29:25;;;;;;;4.53;2.65;;;31.50;99.90;;;;;;5130390;27;20250;-84
2023/08/11 10:31:54;;;;;;;4.47;2.70;;;31.40;99.90;;;;;;5128580;27;20317;-83
2023/08/11 10:34:23;;;;;;;4.07;2.72;;;31.30;99.90;;;;;;5127151;27;20256;-83
2023/08/11 10:36:54;;;;;;;3.10;2.80;;;31.20;99.90;;;;;;5118562;28;20651;-84
2023/08/11 10:39:22;;;;;;;4.85;3.38;;;31.20;99.90;;;;;;5122939;28;20194;-84
2023/08/11 10:41:49;;;;;;;3.88;2.92;;;31.00;99.90;;;;;;5128280;28;20210;-84
2023/08/11 10:44:18;;;;;;;4.38;2.95;;;31.10;99.90;;;;;;5126353;28;20203;-82
2023/08/11 10:46:48;;;;;;;3.63;2.45;;;31.10;99.90;;;;;;5128456;27;20198;-82
2023/08/11 10:49:15;;;;;;;3.35;2.47;;;31.20;99.90;;;;;;5136379;27;20222;-86
2023/08/11 10:51:42;;;;;;;3.20;2.28;;;31.10;99.90;;;;;;5139287;28;20570;-83
2023/08/11 10:54:11;;;;;;;2.40;2.20;;;31.10;99.90;;;;;;5139314;28;20201;-82
2023/08/11 10:56:39;;;;;;;2.67;2.17;;;31.10;99.90;;;;;;5136715;27;20238;-83
2023/08/11 10:59:14;;;;;;;3.40;2.40;;;31.20;99.90;;;;;;5134101;27;20198;-85
2023/08/11 11:01:49;;;;;;;6.15;2.47;;;31.30;99.90;;;;;;5132481;28;20198;-84
2023/08/11 11:04:18;;;;;;;3.55;2.50;;;31.40;99.90;;;;;;5132098;27;20650;-84
2023/08/11 11:06:52;;;;;;;3.35;2.40;;;31.40;99.90;;;;;;5130757;27;20213;-83
2023/08/11 11:09:19;;;;;;;3.53;2.50;;;31.50;99.90;;;;;;5130981;28;20251;-83
2023/08/11 11:11:51;;;;;;;5.40;2.10;;;31.60;99.90;;;;;;5128953;28;20640;-86
2023/08/11 11:14:18;;;;;;;3.38;2.20;;;31.80;99.90;;;;;;5129452;28;20586;-83
2023/08/11 11:16:46;;;;;;;4.68;2.45;;;32.00;99.90;;;;;;5130362;27;20260;-83
2023/08/11 11:19:13;;;;;;;3.47;2.50;;;32.00;99.90;;;;;;5125092;28;20788;-83
2023/08/11 11:21:43;;;;;;;3.17;2.42;;;32.10;99.90;;;;;;5124738;28;20195;-84
2023/08/11 11:24:10;;;;;;;2.35;2.15;;;32.10;99.90;;;;;;5123375;28;20192;-85
2023/08/11 11:26:37;;;;;;;2.85;2.38;;;32.10;99.90;;;;;;5120511;28;20225;-84
2023/08/11 11:29:05;;;;;;;2.83;2.05;;;32.10;99.90;;;;;;5126110;28;20659;-82
2023/08/11 11:31:35;;;;;;;5.03;2.60;;;32.20;99.90;;;;;;5116416;27;20230;-85
2023/08/11 11:34:03;;;;;;;3.08;1.90;;;32.20;99.90;;;;;;5126426;27;20542;-84
2023/08/11 11:36:32;;;;;;;2.70;2.15;;;32.20;99.90;;;;;;5120595;27;20234;-85
2023/08/11 11:38:59;;;;;;;2.80;2.20;;;32.20;99.90;;;;;;5122453;27;20198;-83
2023/08/11 11:41:31;;;;;;;3.78;2.25;;;32.30;99.90;;;;;;5125415;27;20278;-84
2023/08/11 11:43:59;;;;;;;2.38;2.10;;;32.30;99.90;;;;;;5130134;27;20232;-83
2023/08/11 11:46:31;;;;;;;3.95;2.50;;;32.30;99.90;;;;;;5126698;27;20227;-84
2023/08/11 11:49:00;;;;;;;2.70;2.20;;;32.30;99.90;;;;;;5127603;27;20221;-82
2023/08/11 11:51:32;;;;;;;5.53;2.60;;;32.30;99.90;;;;;;5121833;27;20199;-83
2023/08/11 11:53:59;;;;;;;2.35;2.08;;;32.30;99.90;;;;;;5139452;27;20194;-86
2023/08/11 11:56:30;;;;;;;2.72;2.40;;;32.20;99.90;;;;;;5138282;27;20232;-84
2023/08/11 11:58:58;;;;;;;3.25;2.30;;;32.20;99.90;;;;;;5137301;27;20201;-83
2023/08/11 12:01:26;;;;;;;3.67;2.20;;;32.10;99.90;;;;;;5127747;27;20207;-84
2023/08/11 12:03:58;;;;;;;2.63;2.20;;;32.30;99.90;;;;;;5130912;27;20191;-83
2023/08/11 12:06:28;;;;;;;3.13;2.22;;;32.40;99.90;;;;;;5132122;27;20191;-83
2023/08/11 12:09:15;;;;;;;3.25;2.30;;;32.50;99.90;;;;;;5135312;27;20210;-85
2023/08/11 12:11:42;;;;;;;2.75;2.53;;;32.50;99.90;;;;;;5123730;27;20301;-84
2023/08/11 12:14:11;;;;;;;3.47;2.22;;;32.50;99.90;;;;;;5135972;27;20195;-80
2023/08/11 12:16:41;;;;;;;3.25;2.30;;;32.30;99.90;;;;;;5136423;27;20226;-82
2023/08/11 12:19:09;;;;;;;3.20;2.38;;;32.30;99.90;;;;;;5134908;27;20203;-85
2023/08/11 12:21:36;;;;;;;3.17;2.40;;;32.30;99.90;;;;;;5131869;27;20216;-83
2023/08/11 12:24:05;;;;;;;4.90;2.60;;;32.40;99.90;;;;;;5139502;27;20210;-82
2023/08/11 12:26:34;;;;;;;3.47;2.50;;;32.50;99.90;;;;;;5128868;27;20222;-85
2023/08/11 12:29:01;;;;;;;4.15;2.28;;;32.50;99.90;;;;;;5135050;27;20623;-83
2023/08/11 12:31:28;;;;;;;3.42;2.13;;;32.60;99.90;;;;;;5140720;27;20287;-83
2023/08/11 12:33:55;;;;;;;3.05;2.50;;;32.70;99.90;;;;;;5137568;27;20717;-84
2023/08/11 12:36:22;;;;;;;3.17;2.35;;;32.80;99.90;;;;;;5142848;27;20229;-84
2023/08/11 12:38:49;;;;;;;4.05;2.88;;;32.80;99.90;;;;;;5139799;27;20194;-83
2023/08/11 12:41:17;;;;;;;3.75;2.38;;;32.70;99.90;;;;;;5125930;27;20257;-84
2023/08/11 12:43:44;;;;;;;3.17;2.38;;;32.80;99.90;;;;;;5135551;27;20573;-84